AirNav   Pilot Hours Calculator
 
 646 users online  

NY22 NYPD Air Operations Heliport (Floyd Bennett Field)
New York, New York, USA

GOING TO NEW YORK?


FAA INFORMATION EFFECTIVE 08 OCTOBER 2020

Location

FAA Identifier: NY22
Lat/Long: 40-35-25.2800N 073-52-54.5500W
40-35.421333N 073-52.909167W
40.5903556,-73.8818194
(estimated)
Elevation: 6 ft. / 2 m (estimated)
Variation: 13W (1985)
From city: 6 miles SE of NEW YORK, NY
Time zone: UTC -4 (UTC -5 during Standard Time)
Zip code: 11234

Heliport Operations

Heliport use: Private use. Permission required prior to landing
Activation date: 06/1940
Control tower: yes
ARTCC: NEW YORK CENTER
FSS: NEW YORK FLIGHT SERVICE STATION
Attendance: UNATNDD
Segmented circle: no
Lights: SS-SR

Heliport Communications

SSB: 164.3 381.8
WX ASOS at JFK (6 nm NE): 128.725 (718-656-0956)
WX AWOS-3PT at JRB (9 nm NW): 128.175 (212-425-1534)
WX ASOS at LGA (11 nm N): PHONE 718-672-6317
WX ASOS at EWR (14 nm NW): PHONE 973-621-2892
WX AWOS-3 at LDJ (17 nm W): 124.025 (908-862-7383)
WX ASOS at TEB (18 nm NW): PHONE 201-393-0855
  • USCG OPNS ON FREQS 164.3 & 381.8. USCG FREQS NOT MANNED CONT.

Nearby radio navigation aids

VOR radial/distance  VOR name  Freq  Var
CRIr168/1.4CANARSIE VOR/DME112.3011W
JFKr255/5.6KENNEDY VOR/DME115.9012W
LGAr195/11.6LA GUARDIA VOR/DME113.1012W
TEBr163/17.5TETERBORO VOR/DME108.4011W
COLr048/21.0COLTS NECK VOR/DME115.4011W
DPKr257/28.9DEER PARK VOR/DME117.7012W
RBVr060/36.4ROBBINSVILLE VORTAC113.8010W
SBJr099/39.2SOLBERG VOR/DME112.9010W

 
NDB name  Hdg/Dist  Freq  Var  ID
BABYLON272/23.227514WBBN -... -... -.
CHATHAM123/26.525413WCAT -.-. .- -
LAKEHURST043/38.839611WNEL -. . .-..

Heliport Services

Fuel available: A J5
FUEL: J5.
Bottled oxygen: NONE
Bulk oxygen: NONE

Runway Information

Helipad H1

Dimensions: 70 x 70 ft. / 21 x 21 m
Surface: concrete
Runway edge lights: PERI
Runway edge markings: WHITE PAINTED MALTESE CROSS.
Latitude: 40-35.421333N
Longitude: 073-52.909167W
Elevation: 6.0 ft.
Traffic pattern: leftleft
Markings: NSTD

Heliport Ownership and Management from official FAA records

Ownership: Publicly-owned
Owner: CITY OF NEW YORK-NYPD
1 POLICE PLAZA
NEW YORK, NY 10038
Phone 718-692-1220
Manager: COMMANDING OFFICER-AVIATION UNIT
FLOYD BENNETT FIELD
BROOKLYN, NY 11234-7097
Phone 718-692-1220

Heliport Operational Statistics

Aircraft based on the field: 7
Helicopters: 7
    

Additional Remarks

A52-H1 RY H1 OBST LGT ON CG BLDG LCTD E SIDE FLD ADJ TO WATER ONLY, ABD BLDG ON FLD UNLGTD.
FOR CD CTC NEW YORK APCH AT 516-683-2962.
OFFL BUS ONLY. RESCUE MISSION ACFT EXEMPTED.
HEAVY CONENTRATION OF LARGE BIRDS INVOF HELIPAD.
OBST LGT ON CG BLDG LCTD ON E SIDE OF FIELD ADJ TO WATER ONLY.
ABANDONED BLDGS ON FLD UNLGTD.
REMOTE CONTROL AIRCRAFT ARE FLOWN SR-SS AT NORTHERN EDGE OF HELIPORT.

Instrument Procedures

There are no published instrument procedures at NY22.

Some nearby airports with instrument procedures:

KJFK - John F Kennedy International Airport (6 nm NE)
KJRB - Downtown Manhattan/Wall Street Heliport (9 nm NW)
6N5 - East 34th Street Heliport (10 nm NW)
KLGA - LaGuardia Airport (11 nm N)
KJRA - West 30th St Heliport (11 nm NW)
KEWR - Newark Liberty International Airport (14 nm NW)
KLDJ - Linden Airport (17 nm W)
KTEB - Teterboro Airport (18 nm NW)
 
Loc | Ops | Rwys | IFR | FBO | Links
Com | Nav | Svcs | Stats | Notes
Area around NY22 (NYPD Air Operations Heliport (Floyd Bennett Field))
 
Road maps at: MapQuest Bing Google
 
Aerial photo
WARNING: Photo may not be current or correct
Aerial photo of NY22 (NYPD Air Operations Heliport (Floyd Bennett Field))
Photo courtesy of AirNav, LLC
Photo taken 18-Oct-2013
looking north.

Do you have a better or more recent aerial photo of NYPD Air Operations Heliport (Floyd Bennett Field) that you would like to share? If so, please send us your photo.

 
Sectional chart

 
Airport distance calculator
Flying to NYPD Air Operations Heliport (Floyd Bennett Field)? Find the distance to fly.

From to NY22

Sunrise and sunset
Times for 20-Oct-2020
 Local
(UTC-4)
 Zulu
(UTC)
Morning civil twilight06:4610:46
Sunrise07:1411:14
Sunset18:0622:06
Evening civil twilight18:3422:34

Current date and time
Zulu (UTC)  20-Oct-2020 11:24:24
Local (UTC-4)  20-Oct-2020 07:24:24
 
METAR
KJFK 
6nm NE 
201051Z 13004KT 6SM -DZ BR BKN004 BKN020 OVC036 16/16 A3024 RMK AO2 SLP239 P0000 T01610156
KJRB 
9nm NW 
201056Z AUTO 00000KT 10SM OVC006 17/16 A3024 RMK AO2 SLP239 T01670156
KLGA 
12nm N 
201051Z 12004KT 2 1/2SM -RA BR OVC005 17/14 A3022 RMK AO2 RAB20 SLP233 P0000 T01670144
KNYC 
12nm N 
201051Z AUTO VRB03KT 4SM BR OVC008 15/14 A3025 RMK AO2 RAB04E21 SLP233 P0000 T01500144 $
KEWR 
14nm NW 
201051Z 00000KT 7SM OVC007 16/15 A3023 RMK AO2 SLP236 T01610150
KLDJ 
17nm W 
201055Z AUTO 00000KT 2 1/2SM BR OVC006 15/13 A3023 RMK AO2 T01460133
KTEB 
18nm NW 
201051Z 32003KT 9SM OVC009 14/13 A3022 RMK AO2 SLP234 T01390128
TAF
KJFK 
6nm NE 
200841Z 2009/2112 VRB05KT 5SM -SHRA BR BKN012 FM201100 17007KT P6SM VCSH SCT006 OVC010 TEMPO 2011/2015 BKN006 FM201500 18007KT 4SM -DZ BR SCT009 BKN015 FM202100 19006KT 5SM -DZ BR SCT015 BKN025 FM202300 VRB04KT P6SM SCT010 BKN020 FM210100 VRB03KT P6SM SCT005 BKN010 FM210300 VRB03KT 3SM BR OVC010
KLGA 
12nm N 
200937Z 2010/2112 VRB03KT P6SM VCSH BKN008 OVC020 FM201100 13006KT P6SM VCSH SCT005 OVC010 TEMPO 2011/2015 BKN005 FM201500 14006KT 5SM -DZ BR VCSH SCT009 BKN015 FM201900 14006KT 4SM -DZ BR SCT015 BKN020 FM202300 VRB05KT 4SM BR SCT010 BKN015 FM210200 VRB03KT 3SM BR OVC010
KEWR 
14nm NW 
200841Z 2009/2112 VRB03KT P6SM VCSH BKN010 OVC015 FM201000 11005KT P6SM VCSH SCT005 OVC010 FM201400 15005KT 5SM -DZ BR SCT009 BKN015 FM202100 16006KT 4SM -DZ BR SCT015 BKN020 FM202300 VRB04KT 4SM BR SCT010 BKN015 FM210200 VRB03KT 3SM BR OVC010
KTEB 
18nm NW 
200841Z 2009/2112 VRB03KT P6SM VCSH BKN010 FM201000 15004KT P6SM VCSH SCT005 OVC010 FM201600 20006KT 5SM -DZ BR SCT009 OVC015 FM202100 VRB04KT 4SM -DZ BR SCT010 BKN020 FM210000 VRB02KT 5SM BR OVC015 FM210200 VRB02KT 3SM BR OVC010
NOTAMs
Click for the latest NOTAMs
NOTAMs are issued by the DoD/FAA and will open in a separate window not controlled by AirNav.

 

 
 

Would you like to see your business listed on this page?

 If your business provides an interesting product or service to pilots, flight crews, aircraft, or users of the NYPD Air Operations Heliport (Floyd Bennett Field), you should consider listing it here.  To start the listing process, click on the button below
 
Add a business
 

Other Pages about NYPD Air Operations Heliport (Floyd Bennett Field)

aeroweb.brooklyn.cuny.edu/...
 
Update a link
 
Copyright © AirNav, LLC. All rights reserved. Privacy Policy  Contact